Current | Forecast
Updated: 3:00 AM JST on October 18, 2017
Observed at Kansai, Japan
Temperature 63°F
Humidity 77%
Dew Point 55°F
Wind ENE at 7 mph
Pressure 30.15 in (Steady)
Conditions Clear
Visibility 6.2 miles
UV N/A
Clouds
Yesterday's Maximum 63°F
Yesterday's Minimum 59°F approx.
Yesterday's Heating Degree Days 4 approx.
Sunrise6:03 AM JST
Sunset5:19 PM JST
Moon Rise4:12 AM JST
Moon Set4:42 PM JST
Moon PhaseMoon Phase
Waning Crescent
Raw METARMETAR RJBB 171800Z AUTO 07006KT 9999 NCD 17/13 Q1021 NOSIG


Monday
. High: 71° F.
Tuesday
. High: 71° F.
Wednesday
. High: 75° F.
Thursday
. High: 71° F.
Friday
. High: 73° F.
Saturday
. High: 77° F.
Sunday
. High: 75° F.
Monday
. High: 78° F.

Units: English | Metric

Find the Weather for any City, State or Zipcode, or Country:

U.S. State List | Severe Weather | Tropical Storms | Ski Conditions
United States | Canada | Central America | South America | Asia | Europe | Australia | Africa | Islands

Weather Underground

© Copyright 2017
The Weather Company, LLC